createdAt,value
2023-03-27T00:00:16.930Z,2.20
2023-03-27T00:03:20.598Z,2.40
2023-03-27T00:06:27.787Z,2.88
2023-03-27T00:09:32.413Z,2.35
2023-03-27T00:12:35.720Z,3.05
2023-03-27T00:15:39.465Z,2.63
2023-03-27T00:18:42.082Z,2.45
2023-03-27T00:21:45.120Z,2.38
2023-03-27T00:24:47.662Z,2.60
2023-03-27T00:27:50.291Z,2.67
2023-03-27T00:30:54.940Z,2.60
2023-03-27T00:33:58.096Z,2.40
2023-03-27T00:37:04.713Z,2.55
2023-03-27T00:40:15.643Z,2.55
2023-03-27T00:46:40.578Z,2.05
2023-03-27T00:49:43.689Z,2.35
2023-03-27T00:52:51.839Z,2.70
2023-03-27T00:55:59.064Z,2.50
2023-03-27T00:59:06.304Z,2.33
2023-03-27T01:02:10.681Z,2.78
2023-03-27T01:05:13.734Z,2.70
2023-03-27T01:08:17.465Z,2.50
2023-03-27T01:11:35.388Z,2.17
2023-03-27T01:14:42.811Z,2.58
2023-03-27T01:18:22.963Z,2.38
2023-03-27T01:21:52.304Z,2.55
2023-03-27T01:25:15.930Z,2.40
2023-03-27T01:29:05.908Z,2.80
2023-03-27T01:32:42.692Z,3.30
2023-03-27T01:35:54.351Z,2.63
2023-03-27T01:39:29.219Z,2.67
2023-03-27T01:42:39.437Z,2.70
2023-03-27T01:45:56.075Z,2.70
2023-03-27T01:49:10.950Z,2.65
2023-03-27T01:55:28.162Z,3.20
2023-03-27T01:58:39.203Z,3.40
2023-03-27T02:01:47.264Z,3.28
2023-03-27T02:04:59.741Z,3.30
2023-03-27T02:08:10.572Z,3.10
2023-03-27T02:11:14.378Z,3.50
2023-03-27T02:14:21.533Z,3.90
2023-03-27T02:17:26.465Z,3.30
2023-03-27T02:20:33.042Z,3.38
2023-03-27T02:23:38.719Z,3.50
2023-03-27T02:26:41.608Z,3.20
2023-03-27T02:30:00.760Z,2.65
2023-03-27T02:33:18.549Z,2.50
2023-03-27T02:36:45.302Z,2.83
2023-03-27T02:40:15.221Z,2.50
2023-03-27T02:44:01.837Z,2.40
2023-03-27T02:47:50.951Z,2.15
2023-03-27T02:51:03.100Z,2.75
2023-03-27T02:54:17.120Z,2.70
2023-03-27T02:57:25.358Z,2.88
2023-03-27T03:01:01.308Z,2.88
2023-03-27T03:04:29.656Z,2.67
2023-03-27T03:08:01.654Z,2.75
2023-03-27T03:11:07.153Z,2.80
2023-03-27T03:14:09.775Z,2.90
2023-03-27T03:17:14.030Z,2.67
2023-03-27T03:20:17.115Z,3.17
2023-03-27T03:23:21.900Z,3.00
2023-03-27T03:26:27.178Z,3.17
2023-03-27T03:29:30.253Z,2.90
2023-03-27T03:32:47.436Z,2.88
2023-03-27T03:35:50.731Z,3.03
2023-03-27T03:39:07.269Z,3.30
2023-03-27T03:42:10.193Z,3.00
2023-03-27T03:45:27.184Z,3.60
2023-03-27T03:48:29.713Z,3.40
2023-03-27T03:51:33.766Z,4.18
2023-03-27T03:54:38.790Z,3.70
2023-03-27T03:57:47.115Z,3.55
2023-03-27T04:00:55.478Z,3.85
2023-03-27T04:04:06.220Z,3.83
2023-03-27T04:07:31.571Z,4.72
2023-03-27T04:10:51.786Z,4.53
2023-03-27T04:14:14.570Z,4.18
2023-03-27T04:17:20.870Z,4.57
2023-03-27T04:20:26.574Z,4.95
2023-03-27T04:23:33.891Z,5.22
2023-03-27T04:26:36.983Z,4.97
2023-03-27T04:29:58.392Z,5.50
2023-03-27T04:33:18.700Z,6.15
2023-03-27T04:36:44.732Z,5.95
2023-03-27T04:39:51.002Z,6.90
2023-03-27T04:42:56.261Z,6.38
2023-03-27T04:45:59.178Z,6.18
2023-03-27T04:49:01.979Z,7.35
2023-03-27T04:52:19.847Z,6.45
2023-03-27T04:55:25.885Z,6.75
2023-03-27T04:58:28.838Z,5.95
2023-03-27T05:01:33.966Z,6.60
2023-03-27T05:04:58.648Z,6.10
2023-03-27T05:08:07.241Z,6.05
2023-03-27T05:11:10.880Z,7.03
2023-03-27T05:14:20.386Z,7.40
2023-03-27T05:17:25.876Z,7.13
2023-03-27T05:20:29.342Z,6.30
2023-03-27T05:23:34.400Z,5.60
2023-03-27T05:26:39.250Z,5.45
2023-03-27T05:29:47.302Z,4.63
2023-03-27T05:32:53.754Z,3.60
2023-03-27T05:36:06.119Z,4.35
2023-03-27T05:39:11.473Z,4.80
2023-03-27T05:42:18.189Z,4.40
2023-03-27T05:45:22.301Z,4.20
2023-03-27T05:48:25.296Z,5.38
2023-03-27T05:51:29.340Z,4.95
2023-03-27T05:54:32.282Z,4.30
2023-03-27T05:57:41.798Z,4.20
2023-03-27T06:00:44.580Z,4.20
2023-03-27T06:03:56.820Z,3.50
2023-03-27T06:07:04.565Z,3.50
2023-03-27T06:10:13.414Z,4.05
2023-03-27T06:13:21.298Z,3.75
2023-03-27T06:19:53.048Z,3.55
2023-03-27T06:22:59.448Z,3.10
2023-03-27T06:26:07.529Z,3.05
2023-03-27T06:29:10.555Z,2.97
2023-03-27T06:32:21.399Z,2.85
2023-03-27T06:35:30.716Z,3.58
2023-03-27T06:38:46.501Z,3.20
2023-03-27T06:41:49.401Z,4.20
2023-03-27T06:45:12.227Z,3.00
2023-03-27T06:48:33.240Z,3.20
2023-03-27T06:51:38.997Z,3.08
2023-03-27T06:54:41.788Z,2.80
2023-03-27T06:57:50.070Z,2.70
2023-03-27T07:00:55.433Z,2.58
2023-03-27T07:03:57.936Z,3.42
2023-03-27T07:07:33.148Z,2.85
2023-03-27T07:10:35.879Z,2.70
2023-03-27T07:13:39.182Z,3.22
2023-03-27T07:16:44.860Z,2.75
2023-03-27T07:19:47.784Z,3.20
2023-03-27T07:22:51.828Z,2.88
2023-03-27T07:26:09.119Z,2.55
2023-03-27T07:29:35.057Z,2.88
2023-03-27T08:27:45.402Z,2.30
2023-03-27T08:30:51.201Z,2.63
2023-03-27T08:33:54.005Z,2.42
2023-03-27T08:37:01.093Z,2.97
2023-03-27T08:40:29.703Z,2.63
2023-03-27T08:44:03.842Z,2.80
2023-03-27T08:47:32.051Z,2.88
2023-03-27T08:50:48.227Z,3.15
2023-03-27T08:53:53.464Z,2.80
2023-03-27T08:57:01.178Z,2.90
2023-03-27T09:00:14.370Z,3.25
2023-03-27T09:03:35.872Z,2.90
2023-03-27T09:06:52.483Z,2.92
2023-03-27T09:10:33.931Z,2.88
2023-03-27T09:13:51.121Z,2.78
2023-03-27T09:17:01.069Z,3.65
2023-03-27T09:20:17.928Z,3.00
2023-03-27T09:23:32.443Z,7.50
2023-03-27T09:26:52.757Z,3.85
2023-03-27T09:30:25.117Z,3.40
2023-03-27T09:33:34.093Z,3.42
2023-03-27T09:36:38.876Z,3.50
2023-03-27T09:39:48.467Z,2.60
2023-03-27T09:43:08.590Z,3.10
2023-03-27T09:46:19.519Z,2.90
2023-03-27T09:49:30.276Z,3.10
2023-03-27T09:52:41.705Z,2.95
2023-03-27T09:56:12.894Z,3.00
2023-03-27T09:59:24.306Z,2.92
2023-03-27T10:02:30.250Z,4.03
2023-03-27T10:05:35.667Z,3.80
2023-03-27T10:08:42.400Z,3.60
2023-03-27T10:12:19.613Z,3.10
2023-03-27T10:15:38.768Z,3.03
2023-03-27T10:18:46.234Z,3.00
2023-03-27T10:21:52.731Z,2.85
2023-03-27T10:25:04.962Z,2.40
2023-03-27T10:28:36.554Z,2.50
2023-03-27T10:31:57.792Z,2.60
2023-03-27T10:35:36.759Z,2.40
2023-03-27T10:38:58.448Z,2.60
2023-03-27T10:42:16.434Z,2.53
2023-03-27T10:45:24.427Z,2.20
2023-03-27T10:48:43.853Z,2.47
2023-03-27T10:51:58.819Z,2.78
2023-03-27T10:55:34.656Z,3.15
2023-03-27T10:58:47.244Z,2.75
2023-03-27T11:01:56.197Z,2.58
2023-03-27T11:05:14.192Z,2.53
2023-03-27T11:08:30.011Z,2.75
2023-03-27T11:11:37.420Z,2.20
2023-03-27T11:15:14.883Z,3.20
2023-03-27T11:18:24.650Z,2.33
2023-03-27T11:21:49.856Z,2.13
2023-03-27T11:25:06.604Z,2.28
2023-03-27T11:31:46.291Z,1.95
2023-03-27T11:34:57.871Z,1.92
2023-03-27T11:38:32.946Z,1.90
2023-03-27T11:41:38.112Z,1.92
2023-03-27T11:44:42.015Z,1.92
2023-03-27T11:48:01.398Z,2.40
2023-03-27T11:51:20.838Z,2.20
2023-03-27T11:54:40.712Z,2.58
2023-03-27T11:57:48.085Z,3.03
2023-03-27T12:01:18.416Z,2.53
2023-03-27T12:04:28.796Z,2.70
2023-03-27T12:07:54.349Z,2.83
2023-03-27T12:11:01.379Z,3.20
2023-03-27T12:14:18.469Z,3.45
2023-03-27T12:18:02.692Z,4.57
2023-03-27T12:21:32.510Z,5.57
2023-03-27T12:25:21.814Z,7.57
2023-03-27T12:28:49.789Z,10.27
2023-03-27T12:32:26.069Z,12.00
2023-03-27T12:35:32.334Z,11.93
2023-03-27T12:38:42.256Z,11.45
2023-03-27T12:41:46.067Z,10.20
2023-03-27T12:45:19.653Z,8.90
2023-03-27T12:48:27.237Z,8.10
2023-03-27T12:51:43.334Z,7.25
2023-03-27T12:55:06.162Z,6.28
2023-03-27T13:02:08.507Z,4.18
2023-03-27T13:05:29.971Z,4.10
2023-03-27T13:09:10.107Z,3.70
2023-03-27T13:12:45.117Z,3.80
2023-03-27T13:16:02.025Z,3.10
2023-03-27T13:19:26.155Z,2.67
2023-03-27T13:23:13.437Z,3.15
2023-03-27T13:26:36.806Z,3.25
2023-03-27T13:29:39.749Z,2.83
2023-03-27T13:33:16.549Z,3.03
2023-03-27T13:36:22.843Z,2.10
2023-03-27T13:39:40.403Z,2.17
2023-03-27T13:45:52.737Z,2.38
2023-03-27T13:49:35.544Z,2.30
2023-03-27T13:53:32.932Z,2.40
2023-03-27T13:56:50.895Z,3.05
2023-03-27T14:00:21.661Z,2.97
2023-03-27T14:03:48.676Z,2.70
2023-03-27T14:07:20.821Z,2.80
2023-03-27T14:10:49.523Z,3.22
2023-03-27T14:14:14.304Z,3.33
2023-03-27T14:17:53.104Z,3.70
2023-03-27T14:21:03.578Z,3.67
2023-03-27T14:24:32.553Z,3.30
2023-03-27T14:27:54.003Z,3.70
2023-03-27T14:31:04.415Z,3.83
2023-03-27T14:34:47.271Z,3.60
2023-03-27T14:38:26.462Z,3.42
2023-03-27T14:41:31.412Z,3.50
2023-03-27T14:44:36.991Z,3.60
2023-03-27T14:47:51.798Z,3.00
2023-03-27T14:51:02.004Z,4.70
2023-03-27T14:54:17.002Z,3.55
2023-03-27T14:57:28.097Z,2.85
2023-03-27T15:00:40.974Z,2.88
2023-03-27T15:03:46.183Z,3.30
2023-03-27T15:10:24.367Z,2.97
2023-03-27T15:13:35.409Z,3.13
2023-03-27T15:16:43.553Z,3.03
2023-03-27T15:19:56.264Z,3.10
2023-03-27T15:23:45.609Z,2.80
2023-03-27T15:26:50.885Z,3.10
2023-03-27T15:29:57.796Z,2.80
2023-03-27T15:33:05.859Z,3.30
2023-03-27T15:36:28.539Z,3.10
2023-03-27T15:39:32.264Z,3.50
2023-03-27T15:43:04.902Z,2.88
2023-03-27T15:46:07.884Z,2.80
2023-03-27T15:49:41.992Z,3.33
2023-03-27T15:52:50.027Z,2.85
2023-03-27T15:55:56.025Z,2.90
2023-03-27T15:59:05.400Z,2.92
2023-03-27T16:02:14.514Z,2.80
2023-03-27T16:05:18.853Z,2.53
2023-03-27T16:08:45.908Z,3.13
2023-03-27T16:11:50.629Z,3.00
2023-03-27T16:14:57.354Z,2.90
2023-03-27T16:18:12.033Z,3.05
2023-03-27T16:21:16.126Z,3.00
2023-03-27T16:24:19.293Z,2.72
2023-03-27T16:27:25.125Z,3.65
2023-03-27T16:30:36.328Z,2.65
2023-03-27T16:33:43.125Z,2.97
2023-03-27T16:36:45.860Z,3.08
2023-03-27T16:39:49.991Z,3.08
2023-03-27T16:42:52.691Z,3.20
2023-03-27T16:45:56.108Z,3.00
2023-03-27T16:48:59.958Z,2.95
2023-03-27T16:52:03.279Z,3.03
2023-03-27T16:55:07.685Z,2.78
2023-03-27T16:58:11.889Z,3.17
2023-03-27T17:01:18.714Z,2.80
2023-03-27T17:04:23.003Z,2.80
2023-03-27T17:07:28.702Z,3.03
2023-03-27T17:10:31.867Z,3.33
2023-03-27T17:13:36.073Z,3.40
2023-03-27T17:16:40.000Z,2.97
2023-03-27T17:19:43.061Z,3.10
2023-03-27T17:22:46.267Z,2.90
2023-03-27T17:25:49.782Z,3.30
2023-03-27T17:28:53.155Z,3.10
2023-03-27T17:32:01.115Z,2.78
2023-03-27T17:35:05.370Z,2.88
2023-03-27T17:38:09.113Z,2.88
2023-03-27T17:41:17.627Z,3.38
2023-03-27T17:44:22.092Z,3.08
2023-03-27T17:47:28.693Z,3.05
2023-03-27T17:50:34.086Z,3.17
2023-03-27T17:53:57.350Z,3.22
2023-03-27T17:57:01.610Z,3.08
2023-03-27T18:00:06.588Z,3.10
2023-03-27T18:03:16.891Z,3.40
2023-03-27T18:06:20.344Z,3.50
2023-03-27T18:09:44.494Z,3.50
2023-03-27T18:12:49.419Z,3.00
2023-03-27T18:15:58.080Z,3.17
2023-03-27T18:19:02.692Z,3.60
2023-03-27T18:22:07.216Z,3.30
2023-03-27T18:25:12.298Z,3.47
2023-03-27T18:31:26.414Z,3.03
2023-03-27T18:34:30.054Z,3.35
2023-03-27T18:37:35.168Z,3.50
2023-03-27T18:40:39.215Z,3.63
2023-03-27T18:43:42.820Z,3.10
2023-03-27T18:46:46.258Z,3.45
2023-03-27T18:49:52.396Z,2.95
2023-03-27T18:52:56.599Z,2.83
2023-03-27T18:56:01.297Z,2.88
2023-03-27T18:59:05.988Z,3.05
2023-03-27T19:02:09.646Z,2.80
2023-03-27T19:05:15.616Z,2.72
2023-03-27T19:08:22.465Z,3.50
2023-03-27T19:11:26.477Z,2.70
2023-03-27T19:15:19.457Z,2.90
2023-03-27T19:18:36.066Z,3.05
2023-03-27T19:22:11.498Z,2.90
2023-03-27T19:25:23.337Z,3.00
2023-03-27T19:28:27.284Z,3.05
2023-03-27T19:31:32.899Z,2.72
2023-03-27T19:37:48.475Z,2.88
2023-03-27T19:40:55.003Z,2.63
2023-03-27T19:44:00.380Z,3.05
2023-03-27T19:47:06.115Z,2.45
2023-03-27T19:53:24.565Z,3.00
2023-03-27T19:56:29.842Z,3.13
2023-03-27T19:59:33.658Z,2.90
2023-03-27T20:02:37.593Z,2.90
2023-03-27T20:05:46.551Z,2.90
2023-03-27T20:08:49.551Z,2.60
2023-03-27T20:11:55.428Z,3.10
2023-03-27T20:15:10.879Z,2.67
2023-03-27T20:18:20.071Z,2.88
2023-03-27T20:21:26.015Z,2.78
2023-03-27T20:24:32.446Z,2.70
2023-03-27T20:27:36.786Z,2.60
2023-03-27T20:30:40.883Z,3.17
2023-03-27T20:33:44.817Z,2.63
2023-03-27T20:36:53.698Z,2.90
2023-03-27T20:40:52.761Z,2.50
2023-03-27T20:44:03.336Z,2.72
2023-03-27T20:47:12.599Z,2.28
2023-03-27T20:50:23.906Z,2.30
2023-03-27T20:53:31.758Z,2.25
2023-03-27T20:56:36.145Z,2.50
2023-03-27T20:59:38.976Z,2.55
2023-03-27T21:02:41.684Z,2.63
2023-03-27T21:05:46.945Z,3.40
2023-03-27T21:08:49.517Z,2.33
2023-03-27T21:11:53.562Z,2.47
2023-03-27T21:14:56.409Z,2.60
2023-03-27T21:17:59.612Z,2.97
2023-03-27T21:21:04.845Z,3.22
2023-03-27T21:24:07.565Z,3.30
2023-03-27T21:27:10.342Z,3.13
2023-03-27T21:30:16.497Z,2.83
2023-03-27T21:33:19.752Z,2.50
2023-03-27T21:36:22.415Z,2.45
2023-03-27T21:39:25.123Z,2.33
2023-03-27T21:42:27.804Z,2.90
2023-03-27T21:45:31.675Z,2.60
2023-03-27T21:48:35.702Z,2.80
2023-03-27T21:51:39.265Z,2.65
2023-03-27T21:54:49.894Z,3.10
2023-03-27T21:57:59.114Z,2.70
2023-03-27T22:01:05.536Z,2.38
2023-03-27T22:07:12.053Z,2.15
2023-03-27T22:10:16.855Z,2.40
2023-03-27T22:13:20.377Z,2.58
2023-03-27T22:16:24.567Z,2.38
2023-03-27T22:19:27.456Z,2.45
2023-03-27T22:22:30.140Z,2.47
2023-03-27T22:25:37.195Z,2.42
2023-03-27T22:28:59.753Z,2.40
2023-03-27T22:32:16.890Z,2.38
2023-03-27T22:35:19.535Z,2.17
2023-03-27T22:38:22.198Z,2.65
2023-03-27T22:41:26.748Z,2.30
2023-03-27T22:44:31.421Z,2.50
2023-03-27T22:47:34.764Z,2.50
2023-03-27T22:50:37.626Z,2.50
2023-03-27T22:53:41.248Z,2.58
2023-03-27T22:56:47.116Z,2.60
2023-03-27T23:02:55.854Z,2.17
2023-03-27T23:05:59.124Z,2.35
2023-03-27T23:09:02.232Z,2.13
2023-03-27T23:12:05.648Z,2.42
2023-03-27T23:15:09.044Z,2.30
2023-03-27T23:18:11.712Z,2.28
2023-03-27T23:21:18.866Z,2.47
2023-03-27T23:24:24.212Z,2.65
2023-03-27T23:27:27.095Z,2.40
2023-03-27T23:30:33.232Z,3.40
2023-03-27T23:33:39.017Z,3.22
2023-03-27T23:36:41.708Z,2.95
2023-03-27T23:39:45.310Z,2.30
2023-03-27T23:42:48.162Z,2.65
2023-03-27T23:45:52.182Z,2.67
2023-03-27T23:48:55.019Z,2.60
2023-03-27T23:51:58.107Z,2.55
2023-03-27T23:55:00.775Z,2.80
2023-03-27T23:58:04.296Z,2.83
